sensor_id;sensor_type;location;lat;lon;timestamp;P1;durP1;ratioP1;P2;durP2;ratioP2
35424;SDS011;21537;48.226;16.400;2022-11-06T00:01:21;10.73;;;5.22;;
35424;SDS011;21537;48.226;16.400;2022-11-06T00:03:50;11.30;;;5.40;;
35424;SDS011;21537;48.226;16.400;2022-11-06T00:06:16;14.75;;;6.65;;
35424;SDS011;21537;48.226;16.400;2022-11-06T00:09:03;14.15;;;5.50;;
35424;SDS011;21537;48.226;16.400;2022-11-06T00:11:34;12.00;;;5.80;;
35424;SDS011;21537;48.226;16.400;2022-11-06T00:14:00;17.95;;;6.13;;
35424;SDS011;21537;48.226;16.400;2022-11-06T00:16:28;16.85;;;5.72;;
35424;SDS011;21537;48.226;16.400;2022-11-06T00:18:53;15.10;;;4.95;;
35424;SDS011;21537;48.226;16.400;2022-11-06T00:21:23;8.50;;;5.18;;
35424;SDS011;21537;48.226;16.400;2022-11-06T00:23:51;14.18;;;5.43;;
35424;SDS011;21537;48.226;16.400;2022-11-06T00:26:19;13.73;;;4.93;;
35424;SDS011;21537;48.226;16.400;2022-11-06T00:28:49;11.63;;;5.40;;
35424;SDS011;21537;48.226;16.400;2022-11-06T00:31:17;16.55;;;4.82;;
35424;SDS011;21537;48.226;16.400;2022-11-06T00:33:45;13.07;;;5.10;;
35424;SDS011;21537;48.226;16.400;2022-11-06T00:36:16;14.43;;;5.68;;
35424;SDS011;21537;48.226;16.400;2022-11-06T00:38:43;12.80;;;5.57;;
35424;SDS011;21537;48.226;16.400;2022-11-06T00:41:10;16.52;;;5.63;;
35424;SDS011;21537;48.226;16.400;2022-11-06T00:43:37;18.42;;;5.88;;
35424;SDS011;21537;48.226;16.400;2022-11-06T00:46:04;12.75;;;5.40;;
35424;SDS011;21537;48.226;16.400;2022-11-06T00:48:31;11.43;;;4.57;;
35424;SDS011;21537;48.226;16.400;2022-11-06T00:51:01;15.10;;;5.63;;
35424;SDS011;21537;48.226;16.400;2022-11-06T00:53:27;11.13;;;5.15;;
35424;SDS011;21537;48.226;16.400;2022-11-06T00:55:53;12.63;;;6.15;;
35424;SDS011;21537;48.226;16.400;2022-11-06T00:58:19;15.55;;;5.47;;
35424;SDS011;21537;48.226;16.400;2022-11-06T01:00:45;14.95;;;5.65;;
35424;SDS011;21537;48.226;16.400;2022-11-06T01:03:12;10.88;;;5.25;;
35424;SDS011;21537;48.226;16.400;2022-11-06T01:05:37;17.75;;;5.13;;
35424;SDS011;21537;48.226;16.400;2022-11-06T01:08:03;12.57;;;4.72;;
35424;SDS011;21537;48.226;16.400;2022-11-06T01:10:29;21.67;;;5.78;;
35424;SDS011;21537;48.226;16.400;2022-11-06T01:12:56;18.10;;;5.47;;
35424;SDS011;21537;48.226;16.400;2022-11-06T01:15:21;16.20;;;5.70;;
35424;SDS011;21537;48.226;16.400;2022-11-06T01:17:47;9.18;;;4.90;;
35424;SDS011;21537;48.226;16.400;2022-11-06T01:20:13;16.42;;;5.90;;
35424;SDS011;21537;48.226;16.400;2022-11-06T01:22:38;16.88;;;6.18;;
35424;SDS011;21537;48.226;16.400;2022-11-06T01:25:04;12.45;;;5.38;;
35424;SDS011;21537;48.226;16.400;2022-11-06T01:27:31;14.13;;;5.75;;
35424;SDS011;21537;48.226;16.400;2022-11-06T01:29:56;11.27;;;5.30;;
35424;SDS011;21537;48.226;16.400;2022-11-06T01:32:22;16.55;;;5.72;;
35424;SDS011;21537;48.226;16.400;2022-11-06T01:34:49;17.27;;;5.05;;
35424;SDS011;21537;48.226;16.400;2022-11-06T01:37:15;12.98;;;6.07;;
35424;SDS011;21537;48.226;16.400;2022-11-06T01:39:41;10.45;;;4.90;;
35424;SDS011;21537;48.226;16.400;2022-11-06T01:42:08;9.10;;;5.30;;
35424;SDS011;21537;48.226;16.400;2022-11-06T01:49:48;15.20;;;5.85;;
35424;SDS011;21537;48.226;16.400;2022-11-06T01:52:17;16.95;;;5.53;;
35424;SDS011;21537;48.226;16.400;2022-11-06T01:54:46;13.32;;;5.47;;
35424;SDS011;21537;48.226;16.400;2022-11-06T01:57:15;14.32;;;5.43;;
35424;SDS011;21537;48.226;16.400;2022-11-06T01:59:42;13.38;;;5.93;;
35424;SDS011;21537;48.226;16.400;2022-11-06T02:02:09;10.07;;;5.43;;
35424;SDS011;21537;48.226;16.400;2022-11-06T02:04:44;14.82;;;5.32;;
35424;SDS011;21537;48.226;16.400;2022-11-06T02:07:12;13.40;;;5.65;;
35424;SDS011;21537;48.226;16.400;2022-11-06T02:09:38;10.93;;;5.97;;
35424;SDS011;21537;48.226;16.400;2022-11-06T02:12:09;11.73;;;5.63;;
35424;SDS011;21537;48.226;16.400;2022-11-06T02:28:37;11.85;;;5.72;;
35424;SDS011;21537;48.226;16.400;2022-11-06T02:31:11;16.25;;;7.25;;
35424;SDS011;21537;48.226;16.400;2022-11-06T02:33:43;19.30;;;6.90;;
35424;SDS011;21537;48.226;16.400;2022-11-06T02:36:17;13.95;;;6.40;;
35424;SDS011;21537;48.226;16.400;2022-11-06T02:38:47;15.48;;;5.72;;
35424;SDS011;21537;48.226;16.400;2022-11-06T02:41:39;14.40;;;7.00;;
35424;SDS011;21537;48.226;16.400;2022-11-06T02:44:05;15.35;;;6.72;;
35424;SDS011;21537;48.226;16.400;2022-11-06T02:46:36;13.45;;;5.40;;
35424;SDS011;21537;48.226;16.400;2022-11-06T02:49:24;14.52;;;6.70;;
35424;SDS011;21537;48.226;16.400;2022-11-06T02:52:03;15.30;;;6.50;;
35424;SDS011;21537;48.226;16.400;2022-11-06T02:54:34;16.65;;;6.70;;
35424;SDS011;21537;48.226;16.400;2022-11-06T02:57:06;14.63;;;6.57;;
35424;SDS011;21537;48.226;16.400;2022-11-06T02:59:49;15.07;;;6.95;;
35424;SDS011;21537;48.226;16.400;2022-11-06T03:02:25;15.98;;;6.28;;
35424;SDS011;21537;48.226;16.400;2022-11-06T03:05:01;17.98;;;6.68;;
35424;SDS011;21537;48.226;16.400;2022-11-06T03:07:43;20.48;;;6.63;;
35424;SDS011;21537;48.226;16.400;2022-11-06T03:10:17;12.80;;;6.50;;
35424;SDS011;21537;48.226;16.400;2022-11-06T03:12:53;15.68;;;6.00;;
35424;SDS011;21537;48.226;16.400;2022-11-06T03:15:57;13.20;;;6.57;;
35424;SDS011;21537;48.226;16.400;2022-11-06T03:18:29;21.20;;;7.35;;
35424;SDS011;21537;48.226;16.400;2022-11-06T03:21:09;16.52;;;7.72;;
35424;SDS011;21537;48.226;16.400;2022-11-06T03:23:45;12.95;;;6.80;;
35424;SDS011;21537;48.226;16.400;2022-11-06T03:26:34;14.43;;;6.68;;
35424;SDS011;21537;48.226;16.400;2022-11-06T03:29:08;14.38;;;7.55;;
35424;SDS011;21537;48.226;16.400;2022-11-06T03:31:51;24.30;;;8.30;;
35424;SDS011;21537;48.226;16.400;2022-11-06T03:34:30;22.42;;;7.80;;
35424;SDS011;21537;48.226;16.400;2022-11-06T03:37:21;16.90;;;7.38;;
35424;SDS011;21537;48.226;16.400;2022-11-06T03:39:52;17.35;;;7.85;;
35424;SDS011;21537;48.226;16.400;2022-11-06T03:42:25;18.90;;;7.05;;
35424;SDS011;21537;48.226;16.400;2022-11-06T03:44:57;17.45;;;7.20;;
35424;SDS011;21537;48.226;16.400;2022-11-06T03:50:04;21.02;;;7.85;;
35424;SDS011;21537;48.226;16.400;2022-11-06T03:52:34;19.63;;;7.82;;
35424;SDS011;21537;48.226;16.400;2022-11-06T03:57:36;21.42;;;8.10;;
35424;SDS011;21537;48.226;16.400;2022-11-06T04:00:26;21.48;;;7.57;;
35424;SDS011;21537;48.226;16.400;2022-11-06T04:02:56;26.98;;;8.05;;
35424;SDS011;21537;48.226;16.400;2022-11-06T04:05:32;17.60;;;8.20;;
35424;SDS011;21537;48.226;16.400;2022-11-06T04:08:01;19.00;;;7.28;;
35424;SDS011;21537;48.226;16.400;2022-11-06T04:11:06;14.20;;;8.07;;
35424;SDS011;21537;48.226;16.400;2022-11-06T04:13:53;18.27;;;7.60;;
35424;SDS011;21537;48.226;16.400;2022-11-06T04:16:30;15.40;;;8.23;;
35424;SDS011;21537;48.226;16.400;2022-11-06T04:19:19;14.75;;;7.10;;
35424;SDS011;21537;48.226;16.400;2022-11-06T04:24:50;17.30;;;8.07;;
35424;SDS011;21537;48.226;16.400;2022-11-06T04:30:45;13.48;;;8.27;;
35424;SDS011;21537;48.226;16.400;2022-11-06T04:33:24;24.17;;;9.18;;
35424;SDS011;21537;48.226;16.400;2022-11-06T04:36:05;14.45;;;8.25;;
35424;SDS011;21537;48.226;16.400;2022-11-06T04:41:33;32.92;;;8.90;;
35424;SDS011;21537;48.226;16.400;2022-11-06T04:44:12;17.73;;;8.70;;
35424;SDS011;21537;48.226;16.400;2022-11-06T04:46:47;14.60;;;8.40;;
35424;SDS011;21537;48.226;16.400;2022-11-06T04:49:20;19.70;;;9.10;;
35424;SDS011;21537;48.226;16.400;2022-11-06T04:51:47;20.40;;;8.60;;
35424;SDS011;21537;48.226;16.400;2022-11-06T04:54:13;22.48;;;9.57;;
35424;SDS011;21537;48.226;16.400;2022-11-06T04:56:40;17.98;;;8.80;;
35424;SDS011;21537;48.226;16.400;2022-11-06T04:59:06;16.95;;;9.38;;
35424;SDS011;21537;48.226;16.400;2022-11-06T05:01:36;20.25;;;8.38;;
35424;SDS011;21537;48.226;16.400;2022-11-06T05:04:02;22.20;;;10.13;;
35424;SDS011;21537;48.226;16.400;2022-11-06T05:06:27;17.98;;;9.30;;
35424;SDS011;21537;48.226;16.400;2022-11-06T05:08:53;24.17;;;9.25;;
35424;SDS011;21537;48.226;16.400;2022-11-06T05:11:19;25.50;;;9.48;;
35424;SDS011;21537;48.226;16.400;2022-11-06T05:13:45;22.83;;;9.52;;
35424;SDS011;21537;48.226;16.400;2022-11-06T05:16:11;22.75;;;9.02;;
35424;SDS011;21537;48.226;16.400;2022-11-06T05:18:37;16.33;;;8.63;;
35424;SDS011;21537;48.226;16.400;2022-11-06T05:21:03;16.10;;;8.40;;
35424;SDS011;21537;48.226;16.400;2022-11-06T05:23:47;18.77;;;9.63;;
35424;SDS011;21537;48.226;16.400;2022-11-06T05:26:13;19.25;;;9.40;;
35424;SDS011;21537;48.226;16.400;2022-11-06T05:28:39;19.05;;;9.52;;
35424;SDS011;21537;48.226;16.400;2022-11-06T05:31:04;25.55;;;9.07;;
35424;SDS011;21537;48.226;16.400;2022-11-06T05:33:31;21.80;;;9.88;;
35424;SDS011;21537;48.226;16.400;2022-11-06T05:36:02;20.88;;;10.00;;
35424;SDS011;21537;48.226;16.400;2022-11-06T05:38:30;18.10;;;10.07;;
35424;SDS011;21537;48.226;16.400;2022-11-06T05:40:55;19.90;;;9.15;;
35424;SDS011;21537;48.226;16.400;2022-11-06T05:43:21;20.60;;;8.60;;
35424;SDS011;21537;48.226;16.400;2022-11-06T05:45:47;18.38;;;9.70;;
35424;SDS011;21537;48.226;16.400;2022-11-06T05:48:13;20.02;;;8.90;;
35424;SDS011;21537;48.226;16.400;2022-11-06T05:50:39;23.13;;;10.10;;
35424;SDS011;21537;48.226;16.400;2022-11-06T05:53:13;21.43;;;9.47;;
35424;SDS011;21537;48.226;16.400;2022-11-06T05:55:39;22.02;;;9.98;;
35424;SDS011;21537;48.226;16.400;2022-11-06T05:58:05;24.08;;;10.77;;
35424;SDS011;21537;48.226;16.400;2022-11-06T06:00:31;20.15;;;10.00;;
35424;SDS011;21537;48.226;16.400;2022-11-06T06:02:56;29.05;;;10.68;;
35424;SDS011;21537;48.226;16.400;2022-11-06T06:05:22;27.20;;;10.57;;
35424;SDS011;21537;48.226;16.400;2022-11-06T06:07:48;18.52;;;10.48;;
35424;SDS011;21537;48.226;16.400;2022-11-06T06:10:13;24.33;;;10.00;;
35424;SDS011;21537;48.226;16.400;2022-11-06T06:12:39;18.13;;;9.77;;
35424;SDS011;21537;48.226;16.400;2022-11-06T06:15:05;20.50;;;10.57;;
35424;SDS011;21537;48.226;16.400;2022-11-06T06:17:31;21.60;;;10.73;;
35424;SDS011;21537;48.226;16.400;2022-11-06T06:19:57;21.95;;;9.82;;
35424;SDS011;21537;48.226;16.400;2022-11-06T06:22:23;22.33;;;10.98;;
35424;SDS011;21537;48.226;16.400;2022-11-06T06:24:50;20.13;;;9.85;;
35424;SDS011;21537;48.226;16.400;2022-11-06T06:27:16;26.10;;;10.35;;
35424;SDS011;21537;48.226;16.400;2022-11-06T06:29:42;18.67;;;9.93;;
35424;SDS011;21537;48.226;16.400;2022-11-06T06:32:07;18.85;;;9.90;;
35424;SDS011;21537;48.226;16.400;2022-11-06T06:34:33;21.45;;;10.32;;
35424;SDS011;21537;48.226;16.400;2022-11-06T06:36:59;16.02;;;9.75;;
35424;SDS011;21537;48.226;16.400;2022-11-06T06:39:25;19.30;;;10.45;;
35424;SDS011;21537;48.226;16.400;2022-11-06T06:41:50;22.08;;;10.15;;
35424;SDS011;21537;48.226;16.400;2022-11-06T06:44:16;17.42;;;9.32;;
35424;SDS011;21537;48.226;16.400;2022-11-06T06:46:42;19.73;;;9.55;;
35424;SDS011;21537;48.226;16.400;2022-11-06T06:49:08;18.02;;;9.10;;
35424;SDS011;21537;48.226;16.400;2022-11-06T06:51:34;21.33;;;9.40;;
35424;SDS011;21537;48.226;16.400;2022-11-06T06:53:59;18.20;;;8.60;;
35424;SDS011;21537;48.226;16.400;2022-11-06T06:56:25;16.17;;;8.98;;
35424;SDS011;21537;48.226;16.400;2022-11-06T06:58:54;18.98;;;8.73;;
35424;SDS011;21537;48.226;16.400;2022-11-06T07:01:20;20.30;;;8.40;;
35424;SDS011;21537;48.226;16.400;2022-11-06T07:03:46;22.33;;;7.93;;
35424;SDS011;21537;48.226;16.400;2022-11-06T07:06:12;14.82;;;8.05;;
35424;SDS011;21537;48.226;16.400;2022-11-06T07:08:38;18.75;;;8.57;;
35424;SDS011;21537;48.226;16.400;2022-11-06T07:11:05;14.65;;;7.70;;
35424;SDS011;21537;48.226;16.400;2022-11-06T07:13:33;18.58;;;7.82;;
35424;SDS011;21537;48.226;16.400;2022-11-06T07:16:01;15.30;;;8.07;;
35424;SDS011;21537;48.226;16.400;2022-11-06T07:18:32;15.05;;;8.40;;
35424;SDS011;21537;48.226;16.400;2022-11-06T07:20:58;16.90;;;9.30;;
35424;SDS011;21537;48.226;16.400;2022-11-06T07:23:23;23.45;;;11.05;;
35424;SDS011;21537;48.226;16.400;2022-11-06T07:25:52;19.65;;;10.93;;
35424;SDS011;21537;48.226;16.400;2022-11-06T07:28:18;22.65;;;11.02;;
35424;SDS011;21537;48.226;16.400;2022-11-06T07:30:45;22.73;;;10.95;;
35424;SDS011;21537;48.226;16.400;2022-11-06T07:33:11;20.38;;;11.27;;
35424;SDS011;21537;48.226;16.400;2022-11-06T07:35:36;22.70;;;11.63;;
35424;SDS011;21537;48.226;16.400;2022-11-06T07:38:03;24.17;;;12.27;;
35424;SDS011;21537;48.226;16.400;2022-11-06T07:40:31;20.90;;;11.38;;
35424;SDS011;21537;48.226;16.400;2022-11-06T07:43:05;26.08;;;11.88;;
35424;SDS011;21537;48.226;16.400;2022-11-06T07:45:32;22.15;;;12.10;;
35424;SDS011;21537;48.226;16.400;2022-11-06T07:47:58;27.55;;;11.38;;
35424;SDS011;21537;48.226;16.400;2022-11-06T07:50:25;24.65;;;12.40;;
35424;SDS011;21537;48.226;16.400;2022-11-06T07:52:51;22.65;;;12.23;;
35424;SDS011;21537;48.226;16.400;2022-11-06T07:55:17;26.33;;;12.98;;
35424;SDS011;21537;48.226;16.400;2022-11-06T07:57:43;21.98;;;12.27;;
35424;SDS011;21537;48.226;16.400;2022-11-06T08:00:09;24.58;;;13.18;;
35424;SDS011;21537;48.226;16.400;2022-11-06T08:02:38;25.88;;;14.40;;
35424;SDS011;21537;48.226;16.400;2022-11-06T08:05:04;36.88;;;16.10;;
35424;SDS011;21537;48.226;16.400;2022-11-06T08:07:30;37.65;;;16.08;;
35424;SDS011;21537;48.226;16.400;2022-11-06T08:09:56;27.58;;;15.20;;
35424;SDS011;21537;48.226;16.400;2022-11-06T08:12:22;29.08;;;16.45;;
35424;SDS011;21537;48.226;16.400;2022-11-06T08:14:48;29.58;;;16.73;;
35424;SDS011;21537;48.226;16.400;2022-11-06T08:17:13;31.83;;;17.23;;
35424;SDS011;21537;48.226;16.400;2022-11-06T08:19:39;28.98;;;16.05;;
35424;SDS011;21537;48.226;16.400;2022-11-06T08:22:05;32.33;;;17.40;;
35424;SDS011;21537;48.226;16.400;2022-11-06T08:24:31;27.73;;;15.40;;
35424;SDS011;21537;48.226;16.400;2022-11-06T08:26:57;29.80;;;17.27;;
35424;SDS011;21537;48.226;16.400;2022-11-06T08:29:23;25.40;;;15.27;;
35424;SDS011;21537;48.226;16.400;2022-11-06T08:31:49;25.30;;;14.40;;
35424;SDS011;21537;48.226;16.400;2022-11-06T08:34:15;25.25;;;14.00;;
35424;SDS011;21537;48.226;16.400;2022-11-06T08:36:41;21.88;;;13.38;;
35424;SDS011;21537;48.226;16.400;2022-11-06T08:39:16;20.45;;;12.73;;
35424;SDS011;21537;48.226;16.400;2022-11-06T08:41:42;18.00;;;11.80;;
35424;SDS011;21537;48.226;16.400;2022-11-06T08:44:09;21.20;;;12.07;;
35424;SDS011;21537;48.226;16.400;2022-11-06T08:46:35;18.80;;;11.90;;
35424;SDS011;21537;48.226;16.400;2022-11-06T08:49:00;18.17;;;11.52;;
35424;SDS011;21537;48.226;16.400;2022-11-06T08:51:26;17.80;;;11.85;;
35424;SDS011;21537;48.226;16.400;2022-11-06T08:53:52;17.67;;;11.07;;
35424;SDS011;21537;48.226;16.400;2022-11-06T08:56:18;17.40;;;11.55;;
35424;SDS011;21537;48.226;16.400;2022-11-06T08:58:43;18.98;;;10.70;;
35424;SDS011;21537;48.226;16.400;2022-11-06T09:01:09;18.88;;;11.30;;
35424;SDS011;21537;48.226;16.400;2022-11-06T09:03:35;16.33;;;10.02;;
35424;SDS011;21537;48.226;16.400;2022-11-06T09:06:01;14.35;;;9.45;;
35424;SDS011;21537;48.226;16.400;2022-11-06T09:08:29;12.85;;;8.95;;
35424;SDS011;21537;48.226;16.400;2022-11-06T09:10:55;14.93;;;8.65;;
35424;SDS011;21537;48.226;16.400;2022-11-06T09:13:21;13.90;;;8.00;;
35424;SDS011;21537;48.226;16.400;2022-11-06T09:15:47;15.32;;;8.05;;
35424;SDS011;21537;48.226;16.400;2022-11-06T09:18:12;10.38;;;7.13;;
35424;SDS011;21537;48.226;16.400;2022-11-06T09:20:38;10.82;;;7.05;;
35424;SDS011;21537;48.226;16.400;2022-11-06T09:23:05;11.90;;;6.68;;
35424;SDS011;21537;48.226;16.400;2022-11-06T09:25:32;13.82;;;6.82;;
35424;SDS011;21537;48.226;16.400;2022-11-06T09:27:58;9.63;;;5.75;;
35424;SDS011;21537;48.226;16.400;2022-11-06T09:30:25;13.05;;;5.60;;
35424;SDS011;21537;48.226;16.400;2022-11-06T09:32:54;13.20;;;6.15;;
35424;SDS011;21537;48.226;16.400;2022-11-06T09:35:22;11.93;;;6.15;;
35424;SDS011;21537;48.226;16.400;2022-11-06T09:37:49;12.57;;;6.30;;
35424;SDS011;21537;48.226;16.400;2022-11-06T09:40:16;11.23;;;5.35;;
35424;SDS011;21537;48.226;16.400;2022-11-06T09:45:52;9.43;;;5.35;;
35424;SDS011;21537;48.226;16.400;2022-11-06T09:48:22;9.13;;;5.28;;
35424;SDS011;21537;48.226;16.400;2022-11-06T09:50:55;13.68;;;5.05;;
35424;SDS011;21537;48.226;16.400;2022-11-06T09:53:33;9.60;;;5.53;;
35424;SDS011;21537;48.226;16.400;2022-11-06T09:56:03;10.80;;;5.72;;
35424;SDS011;21537;48.226;16.400;2022-11-06T09:58:37;13.00;;;5.85;;
35424;SDS011;21537;48.226;16.400;2022-11-06T10:01:17;8.25;;;5.75;;
35424;SDS011;21537;48.226;16.400;2022-11-06T10:03:49;10.25;;;5.95;;
35424;SDS011;21537;48.226;16.400;2022-11-06T10:06:21;10.90;;;6.57;;
35424;SDS011;21537;48.226;16.400;2022-11-06T10:08:48;11.73;;;6.00;;
35424;SDS011;21537;48.226;16.400;2022-11-06T10:13:46;12.90;;;7.00;;
35424;SDS011;21537;48.226;16.400;2022-11-06T10:21:45;10.98;;;6.32;;
35424;SDS011;21537;48.226;16.400;2022-11-06T10:24:38;10.20;;;5.72;;
35424;SDS011;21537;48.226;16.400;2022-11-06T10:27:15;10.25;;;5.05;;
35424;SDS011;21537;48.226;16.400;2022-11-06T10:32:26;11.00;;;4.95;;
35424;SDS011;21537;48.226;16.400;2022-11-06T10:35:07;12.45;;;5.43;;
35424;SDS011;21537;48.226;16.400;2022-11-06T10:37:43;12.32;;;5.35;;
35424;SDS011;21537;48.226;16.400;2022-11-06T10:40:30;12.45;;;5.20;;
35424;SDS011;21537;48.226;16.400;2022-11-06T10:43:05;11.30;;;4.65;;
35424;SDS011;21537;48.226;16.400;2022-11-06T10:45:42;10.02;;;4.82;;
35424;SDS011;21537;48.226;16.400;2022-11-06T10:48:28;14.75;;;5.13;;
35424;SDS011;21537;48.226;16.400;2022-11-06T10:53:55;10.82;;;4.70;;
35424;SDS011;21537;48.226;16.400;2022-11-06T10:59:26;10.10;;;4.35;;
35424;SDS011;21537;48.226;16.400;2022-11-06T11:01:52;10.57;;;4.10;;
35424;SDS011;21537;48.226;16.400;2022-11-06T11:04:18;9.07;;;4.25;;
35424;SDS011;21537;48.226;16.400;2022-11-06T11:06:44;8.27;;;4.20;;
35424;SDS011;21537;48.226;16.400;2022-11-06T11:09:24;10.90;;;4.43;;
35424;SDS011;21537;48.226;16.400;2022-11-06T11:11:59;7.50;;;3.53;;
35424;SDS011;21537;48.226;16.400;2022-11-06T11:14:26;6.53;;;3.95;;
35424;SDS011;21537;48.226;16.400;2022-11-06T11:17:00;8.27;;;3.85;;
35424;SDS011;21537;48.226;16.400;2022-11-06T11:19:39;7.03;;;3.53;;
35424;SDS011;21537;48.226;16.400;2022-11-06T11:27:36;10.20;;;3.88;;
35424;SDS011;21537;48.226;16.400;2022-11-06T11:30:10;7.63;;;2.92;;
35424;SDS011;21537;48.226;16.400;2022-11-06T11:32:50;13.55;;;3.60;;
35424;SDS011;21537;48.226;16.400;2022-11-06T11:35:18;8.80;;;3.38;;
35424;SDS011;21537;48.226;16.400;2022-11-06T11:37:47;8.80;;;3.35;;
35424;SDS011;21537;48.226;16.400;2022-11-06T11:40:25;7.95;;;3.65;;
35424;SDS011;21537;48.226;16.400;2022-11-06T11:51:33;11.30;;;3.38;;
35424;SDS011;21537;48.226;16.400;2022-11-06T11:54:16;9.07;;;3.20;;
35424;SDS011;21537;48.226;16.400;2022-11-06T11:57:00;9.48;;;4.13;;
35424;SDS011;21537;48.226;16.400;2022-11-06T11:59:36;7.13;;;3.97;;
35424;SDS011;21537;48.226;16.400;2022-11-06T12:02:15;7.22;;;2.95;;
35424;SDS011;21537;48.226;16.400;2022-11-06T12:04:45;7.80;;;3.28;;
35424;SDS011;21537;48.226;16.400;2022-11-06T12:07:23;6.95;;;2.63;;
35424;SDS011;21537;48.226;16.400;2022-11-06T12:09:53;6.78;;;2.72;;
35424;SDS011;21537;48.226;16.400;2022-11-06T12:12:23;9.57;;;3.15;;
35424;SDS011;21537;48.226;16.400;2022-11-06T12:15:09;7.72;;;2.17;;
35424;SDS011;21537;48.226;16.400;2022-11-06T12:17:47;9.10;;;2.70;;
35424;SDS011;21537;48.226;16.400;2022-11-06T12:20:25;8.90;;;2.47;;
35424;SDS011;21537;48.226;16.400;2022-11-06T12:22:58;6.95;;;2.53;;
35424;SDS011;21537;48.226;16.400;2022-11-06T12:25:34;10.02;;;2.10;;
35424;SDS011;21537;48.226;16.400;2022-11-06T12:28:05;6.68;;;2.00;;
35424;SDS011;21537;48.226;16.400;2022-11-06T12:30:37;4.70;;;2.03;;
35424;SDS011;21537;48.226;16.400;2022-11-06T12:33:10;5.95;;;2.20;;
35424;SDS011;21537;48.226;16.400;2022-11-06T12:38:42;5.25;;;2.67;;
35424;SDS011;21537;48.226;16.400;2022-11-06T12:41:24;10.98;;;3.38;;
35424;SDS011;21537;48.226;16.400;2022-11-06T12:43:58;6.88;;;2.80;;
35424;SDS011;21537;48.226;16.400;2022-11-06T12:49:14;8.70;;;2.85;;
35424;SDS011;21537;48.226;16.400;2022-11-06T12:52:19;5.10;;;2.47;;
35424;SDS011;21537;48.226;16.400;2022-11-06T13:12:21;15.00;;;3.50;;
35424;SDS011;21537;48.226;16.400;2022-11-06T13:15:05;10.88;;;3.78;;
35424;SDS011;21537;48.226;16.400;2022-11-06T13:18:00;9.93;;;3.25;;
35424;SDS011;21537;48.226;16.400;2022-11-06T13:20:31;9.98;;;3.45;;
35424;SDS011;21537;48.226;16.400;2022-11-06T13:30:40;8.23;;;3.60;;
35424;SDS011;21537;48.226;16.400;2022-11-06T13:33:13;11.15;;;3.78;;
35424;SDS011;21537;48.226;16.400;2022-11-06T13:35:48;6.35;;;3.30;;
35424;SDS011;21537;48.226;16.400;2022-11-06T13:38:22;6.80;;;3.50;;
35424;SDS011;21537;48.226;16.400;2022-11-06T13:40:56;12.27;;;3.42;;
35424;SDS011;21537;48.226;16.400;2022-11-06T13:48:45;9.35;;;3.25;;
35424;SDS011;21537;48.226;16.400;2022-11-06T13:56:56;6.82;;;3.28;;
35424;SDS011;21537;48.226;16.400;2022-11-06T14:08:05;7.75;;;3.20;;
35424;SDS011;21537;48.226;16.400;2022-11-06T14:10:35;10.23;;;3.47;;
35424;SDS011;21537;48.226;16.400;2022-11-06T14:13:12;10.70;;;3.25;;
35424;SDS011;21537;48.226;16.400;2022-11-06T14:15:40;16.23;;;3.45;;
35424;SDS011;21537;48.226;16.400;2022-11-06T14:18:17;9.50;;;3.25;;
35424;SDS011;21537;48.226;16.400;2022-11-06T14:20:46;9.02;;;2.70;;
35424;SDS011;21537;48.226;16.400;2022-11-06T14:25:59;8.75;;;2.80;;
35424;SDS011;21537;48.226;16.400;2022-11-06T14:28:36;12.30;;;3.38;;
35424;SDS011;21537;48.226;16.400;2022-11-06T14:31:03;7.85;;;3.05;;
35424;SDS011;21537;48.226;16.400;2022-11-06T14:36:11;11.13;;;3.33;;
35424;SDS011;21537;48.226;16.400;2022-11-06T14:44:20;5.90;;;2.80;;
35424;SDS011;21537;48.226;16.400;2022-11-06T14:46:50;9.05;;;2.25;;
35424;SDS011;21537;48.226;16.400;2022-11-06T14:52:08;9.15;;;3.15;;
35424;SDS011;21537;48.226;16.400;2022-11-06T14:54:47;11.07;;;2.95;;
35424;SDS011;21537;48.226;16.400;2022-11-06T14:57:42;10.45;;;2.50;;
35424;SDS011;21537;48.226;16.400;2022-11-06T15:00:18;9.00;;;2.60;;
35424;SDS011;21537;48.226;16.400;2022-11-06T15:03:17;11.93;;;3.45;;
35424;SDS011;21537;48.226;16.400;2022-11-06T15:05:51;12.38;;;3.25;;
35424;SDS011;21537;48.226;16.400;2022-11-06T15:16:33;10.95;;;3.35;;
35424;SDS011;21537;48.226;16.400;2022-11-06T15:19:04;9.43;;;2.60;;
35424;SDS011;21537;48.226;16.400;2022-11-06T15:21:39;8.68;;;2.60;;
35424;SDS011;21537;48.226;16.400;2022-11-06T15:24:27;8.18;;;2.80;;
35424;SDS011;21537;48.226;16.400;2022-11-06T15:26:58;5.50;;;2.90;;
35424;SDS011;21537;48.226;16.400;2022-11-06T15:29:31;10.63;;;3.28;;
35424;SDS011;21537;48.226;16.400;2022-11-06T15:34:50;12.20;;;3.00;;
35424;SDS011;21537;48.226;16.400;2022-11-06T15:37:29;11.75;;;3.08;;
35424;SDS011;21537;48.226;16.400;2022-11-06T15:39:59;7.90;;;2.60;;
35424;SDS011;21537;48.226;16.400;2022-11-06T15:42:26;15.70;;;3.10;;
35424;SDS011;21537;48.226;16.400;2022-11-06T15:45:36;5.18;;;2.50;;
35424;SDS011;21537;48.226;16.400;2022-11-06T15:47:52;6.93;;;2.25;;
35424;SDS011;21537;48.226;16.400;2022-11-06T15:50:23;13.43;;;2.67;;
35424;SDS011;21537;48.226;16.400;2022-11-06T15:53:07;14.50;;;2.92;;
35424;SDS011;21537;48.226;16.400;2022-11-06T15:55:37;10.65;;;2.50;;
35424;SDS011;21537;48.226;16.400;2022-11-06T15:58:22;13.13;;;2.67;;
35424;SDS011;21537;48.226;16.400;2022-11-06T16:00:48;18.13;;;6.03;;
35424;SDS011;21537;48.226;16.400;2022-11-06T16:03:17;14.45;;;4.45;;
35424;SDS011;21537;48.226;16.400;2022-11-06T16:05:48;16.60;;;4.90;;
35424;SDS011;21537;48.226;16.400;2022-11-06T16:08:16;7.60;;;3.22;;
35424;SDS011;21537;48.226;16.400;2022-11-06T16:10:44;10.30;;;3.17;;
35424;SDS011;21537;48.226;16.400;2022-11-06T16:13:16;8.98;;;3.63;;
35424;SDS011;21537;48.226;16.400;2022-11-06T16:15:45;11.20;;;3.53;;
35424;SDS011;21537;48.226;16.400;2022-11-06T16:18:20;6.20;;;3.45;;
35424;SDS011;21537;48.226;16.400;2022-11-06T16:20:56;12.35;;;3.85;;
35424;SDS011;21537;48.226;16.400;2022-11-06T16:23:49;9.70;;;3.17;;
35424;SDS011;21537;48.226;16.400;2022-11-06T16:28:50;11.18;;;3.58;;
35424;SDS011;21537;48.226;16.400;2022-11-06T16:31:22;11.68;;;3.67;;
35424;SDS011;21537;48.226;16.400;2022-11-06T16:33:53;11.23;;;3.38;;
35424;SDS011;21537;48.226;16.400;2022-11-06T16:36:20;7.80;;;3.47;;
35424;SDS011;21537;48.226;16.400;2022-11-06T16:38:46;13.20;;;5.20;;
35424;SDS011;21537;48.226;16.400;2022-11-06T16:41:16;14.85;;;5.05;;
35424;SDS011;21537;48.226;16.400;2022-11-06T16:44:49;13.90;;;3.85;;
35424;SDS011;21537;48.226;16.400;2022-11-06T16:49:33;10.80;;;4.53;;
35424;SDS011;21537;48.226;16.400;2022-11-06T16:52:19;8.80;;;4.43;;
35424;SDS011;21537;48.226;16.400;2022-11-06T16:57:48;19.08;;;5.90;;
35424;SDS011;21537;48.226;16.400;2022-11-06T17:02:46;14.25;;;5.55;;
35424;SDS011;21537;48.226;16.400;2022-11-06T17:05:25;13.60;;;5.18;;
35424;SDS011;21537;48.226;16.400;2022-11-06T17:13:30;17.40;;;6.00;;
35424;SDS011;21537;48.226;16.400;2022-11-06T17:15:58;17.20;;;5.65;;
35424;SDS011;21537;48.226;16.400;2022-11-06T17:18:36;14.60;;;5.07;;
35424;SDS011;21537;48.226;16.400;2022-11-06T17:23:35;12.80;;;5.22;;
35424;SDS011;21537;48.226;16.400;2022-11-06T17:26:02;16.50;;;6.00;;